sensor_id;sensor_type;location;lat;lon;timestamp;pressure;altitude;pressure_sealevel;temperature;humidity
30897;BME280;64229;52.246;21.054;2022-10-31T00:00:27;100932.41;;;11.10;96.06
30897;BME280;64229;52.246;21.054;2022-10-31T00:02:52;100931.25;;;11.00;96.26
30897;BME280;64229;52.246;21.054;2022-10-31T00:05:17;100932.00;;;10.96;96.23
30897;BME280;64229;52.246;21.054;2022-10-31T00:07:42;100935.66;;;10.90;96.67
30897;BME280;64229;52.246;21.054;2022-10-31T00:10:08;100929.16;;;10.81;97.48
30897;BME280;64229;52.246;21.054;2022-10-31T00:12:33;100930.97;;;10.75;97.77
30897;BME280;64229;52.246;21.054;2022-10-31T00:14:59;100932.13;;;10.62;99.07
30897;BME280;64229;52.246;21.054;2022-10-31T00:17:24;100929.00;;;10.65;99.51
30897;BME280;64229;52.246;21.054;2022-10-31T00:19:49;100931.69;;;10.70;98.86
30897;BME280;64229;52.246;21.054;2022-10-31T00:22:14;100932.03;;;10.74;99.11
30897;BME280;64229;52.246;21.054;2022-10-31T00:24:40;100936.31;;;10.75;99.06
30897;BME280;64229;52.246;21.054;2022-10-31T00:27:05;100936.47;;;10.90;98.10
30897;BME280;64229;52.246;21.054;2022-10-31T00:29:30;100933.88;;;10.73;98.92
30897;BME280;64229;52.246;21.054;2022-10-31T00:31:55;100937.19;;;10.59;100.00
30897;BME280;64229;52.246;21.054;2022-10-31T00:34:21;100940.72;;;10.42;100.00
30897;BME280;64229;52.246;21.054;2022-10-31T00:36:46;100936.28;;;10.31;100.00
30897;BME280;64229;52.246;21.054;2022-10-31T00:39:11;100936.78;;;10.28;100.00
30897;BME280;64229;52.246;21.054;2022-10-31T00:41:36;100938.94;;;10.31;100.00
30897;BME280;64229;52.246;21.054;2022-10-31T00:44:02;100937.34;;;10.30;100.00
30897;BME280;64229;52.246;21.054;2022-10-31T00:46:27;100940.00;;;10.30;100.00
30897;BME280;64229;52.246;21.054;2022-10-31T00:48:53;100941.56;;;10.26;100.00
30897;BME280;64229;52.246;21.054;2022-10-31T00:51:18;100946.81;;;10.21;100.00
30897;BME280;64229;52.246;21.054;2022-10-31T00:53:43;100946.47;;;10.18;100.00
30897;BME280;64229;52.246;21.054;2022-10-31T00:56:09;100942.94;;;10.12;100.00
30897;BME280;64229;52.246;21.054;2022-10-31T00:58:34;100945.78;;;10.05;100.00
30897;BME280;64229;52.246;21.054;2022-10-31T01:00:59;100950.31;;;10.05;100.00
30897;BME280;64229;52.246;21.054;2022-10-31T01:03:27;100936.06;;;9.99;100.00
30897;BME280;64229;52.246;21.054;2022-10-31T01:08:22;100948.94;;;10.02;100.00
30897;BME280;64229;52.246;21.054;2022-10-31T01:10:58;100940.84;;;9.97;100.00
30897;BME280;64229;52.246;21.054;2022-10-31T01:13:24;100947.34;;;10.01;100.00
30897;BME280;64229;52.246;21.054;2022-10-31T01:15:54;100950.91;;;9.90;100.00
30897;BME280;64229;52.246;21.054;2022-10-31T01:18:19;100946.69;;;9.94;100.00
30897;BME280;64229;52.246;21.054;2022-10-31T01:20:45;100953.06;;;9.93;100.00
30897;BME280;64229;52.246;21.054;2022-10-31T01:23:10;100949.84;;;9.91;100.00
30897;BME280;64229;52.246;21.054;2022-10-31T01:25:35;100951.41;;;10.09;100.00
30897;BME280;64229;52.246;21.054;2022-10-31T01:28:00;100945.53;;;10.07;100.00
30897;BME280;64229;52.246;21.054;2022-10-31T01:30:25;100954.84;;;10.04;100.00
30897;BME280;64229;52.246;21.054;2022-10-31T01:32:51;100951.63;;;10.02;100.00
30897;BME280;64229;52.246;21.054;2022-10-31T01:35:16;100960.81;;;9.95;100.00
30897;BME280;64229;52.246;21.054;2022-10-31T01:37:41;100955.09;;;9.86;100.00
30897;BME280;64229;52.246;21.054;2022-10-31T01:40:07;100957.59;;;9.93;100.00
30897;BME280;64229;52.246;21.054;2022-10-31T01:42:32;100958.97;;;10.12;100.00
30897;BME280;64229;52.246;21.054;2022-10-31T01:45:01;100944.72;;;10.06;100.00
30897;BME280;64229;52.246;21.054;2022-10-31T01:47:32;100965.66;;;10.14;100.00
30897;BME280;64229;52.246;21.054;2022-10-31T01:50:01;100965.97;;;10.18;100.00
30897;BME280;64229;52.246;21.054;2022-10-31T01:52:34;100967.25;;;10.15;100.00
30897;BME280;64229;52.246;21.054;2022-10-31T01:55:09;100960.56;;;10.13;100.00
30897;BME280;64229;52.246;21.054;2022-10-31T01:57:38;100961.03;;;10.10;100.00
30897;BME280;64229;52.246;21.054;2022-10-31T02:00:07;100961.03;;;10.10;100.00
30897;BME280;64229;52.246;21.054;2022-10-31T02:02:33;100958.56;;;10.03;100.00
30897;BME280;64229;52.246;21.054;2022-10-31T02:05:00;100960.16;;;10.04;100.00
30897;BME280;64229;52.246;21.054;2022-10-31T02:07:30;100961.72;;;10.00;100.00
30897;BME280;64229;52.246;21.054;2022-10-31T02:09:58;100949.59;;;9.93;100.00
30897;BME280;64229;52.246;21.054;2022-10-31T02:12:25;100952.97;;;9.88;100.00
30897;BME280;64229;52.246;21.054;2022-10-31T02:14:50;100953.16;;;9.81;100.00
30897;BME280;64229;52.246;21.054;2022-10-31T02:17:15;100957.03;;;9.74;100.00
30897;BME280;64229;52.246;21.054;2022-10-31T02:20:02;100952.91;;;9.66;100.00
30897;BME280;64229;52.246;21.054;2022-10-31T02:30:17;100928.03;;;9.27;100.00
30897;BME280;64229;52.246;21.054;2022-10-31T02:41:09;100962.84;;;9.09;100.00
30897;BME280;64229;52.246;21.054;2022-10-31T02:44:07;100951.38;;;9.08;100.00
30897;BME280;64229;52.246;21.054;2022-10-31T02:46:40;100964.38;;;9.05;100.00
30897;BME280;64229;52.246;21.054;2022-10-31T02:49:21;100968.53;;;9.01;100.00
30897;BME280;64229;52.246;21.054;2022-10-31T02:51:49;100950.88;;;8.94;100.00
30897;BME280;64229;52.246;21.054;2022-10-31T02:54:21;100961.53;;;8.94;100.00
30897;BME280;64229;52.246;21.054;2022-10-31T02:56:48;100956.09;;;8.89;100.00
30897;BME280;64229;52.246;21.054;2022-10-31T02:59:16;100959.47;;;8.85;100.00
30897;BME280;64229;52.246;21.054;2022-10-31T03:10:20;100973.88;;;8.72;100.00
30897;BME280;64229;52.246;21.054;2022-10-31T03:13:05;100981.13;;;8.77;100.00
30897;BME280;64229;52.246;21.054;2022-10-31T03:15:36;100980.44;;;8.69;100.00
30897;BME280;64229;52.246;21.054;2022-10-31T03:18:08;100986.25;;;8.66;100.00
30897;BME280;64229;52.246;21.054;2022-10-31T03:20:39;100983.81;;;8.65;100.00
30897;BME280;64229;52.246;21.054;2022-10-31T03:23:09;100988.22;;;8.59;100.00
30897;BME280;64229;52.246;21.054;2022-10-31T03:25:37;100988.22;;;8.59;100.00
30897;BME280;64229;52.246;21.054;2022-10-31T03:28:05;100996.19;;;8.59;100.00
30897;BME280;64229;52.246;21.054;2022-10-31T03:30:33;100980.81;;;8.50;100.00
30897;BME280;64229;52.246;21.054;2022-10-31T03:33:02;100995.16;;;8.60;100.00
30897;BME280;64229;52.246;21.054;2022-10-31T03:35:30;101000.81;;;8.76;100.00
30897;BME280;64229;52.246;21.054;2022-10-31T03:37:56;100997.66;;;8.79;100.00
30897;BME280;64229;52.246;21.054;2022-10-31T03:40:26;101002.69;;;8.63;100.00
30897;BME280;64229;52.246;21.054;2022-10-31T03:43:00;101005.56;;;8.50;100.00
30897;BME280;64229;52.246;21.054;2022-10-31T03:45:30;101009.06;;;8.39;100.00
30897;BME280;64229;52.246;21.054;2022-10-31T03:47:57;101006.94;;;8.29;100.00
30897;BME280;64229;52.246;21.054;2022-10-31T03:50:25;101009.84;;;8.28;100.00
30897;BME280;64229;52.246;21.054;2022-10-31T03:53:09;101011.47;;;8.29;100.00
30897;BME280;64229;52.246;21.054;2022-10-31T03:55:41;101010.06;;;8.26;100.00
30897;BME280;64229;52.246;21.054;2022-10-31T03:58:20;101000.81;;;8.17;100.00
30897;BME280;64229;52.246;21.054;2022-10-31T04:00:48;101017.72;;;8.23;100.00
30897;BME280;64229;52.246;21.054;2022-10-31T04:03:21;101017.72;;;8.23;100.00
30897;BME280;64229;52.246;21.054;2022-10-31T04:05:49;101010.06;;;8.15;100.00
30897;BME280;64229;52.246;21.054;2022-10-31T04:08:17;101000.72;;;8.00;100.00
30897;BME280;64229;52.246;21.054;2022-10-31T04:10:44;101006.50;;;8.09;100.00
30897;BME280;64229;52.246;21.054;2022-10-31T04:13:17;101013.53;;;8.03;100.00
30897;BME280;64229;52.246;21.054;2022-10-31T04:15:44;100996.53;;;7.93;100.00
30897;BME280;64229;52.246;21.054;2022-10-31T04:18:10;101010.06;;;8.03;100.00
30897;BME280;64229;52.246;21.054;2022-10-31T04:20:37;101013.19;;;8.00;100.00
30897;BME280;64229;52.246;21.054;2022-10-31T04:23:03;101010.41;;;7.95;100.00
30897;BME280;64229;52.246;21.054;2022-10-31T04:25:29;101009.59;;;7.94;100.00
30897;BME280;64229;52.246;21.054;2022-10-31T04:27:54;101010.97;;;7.97;100.00
30897;BME280;64229;52.246;21.054;2022-10-31T04:30:20;101012.25;;;7.94;100.00
30897;BME280;64229;52.246;21.054;2022-10-31T04:32:45;101009.94;;;7.86;100.00
30897;BME280;64229;52.246;21.054;2022-10-31T04:35:10;101021.25;;;7.81;100.00
30897;BME280;64229;52.246;21.054;2022-10-31T04:37:36;101009.69;;;7.76;100.00
30897;BME280;64229;52.246;21.054;2022-10-31T04:40:01;101019.97;;;7.72;100.00
30897;BME280;64229;52.246;21.054;2022-10-31T04:42:29;101019.72;;;7.74;100.00
30897;BME280;64229;52.246;21.054;2022-10-31T04:44:54;101016.25;;;7.73;100.00
30897;BME280;64229;52.246;21.054;2022-10-31T04:47:20;101021.34;;;7.75;100.00
30897;BME280;64229;52.246;21.054;2022-10-31T04:49:45;101025.19;;;7.79;100.00
30897;BME280;64229;52.246;21.054;2022-10-31T04:52:10;101026.69;;;7.87;100.00
30897;BME280;64229;52.246;21.054;2022-10-31T04:54:35;101031.31;;;7.91;100.00
30897;BME280;64229;52.246;21.054;2022-10-31T04:57:01;101020.00;;;7.96;100.00
30897;BME280;64229;52.246;21.054;2022-10-31T04:59:26;101013.88;;;7.95;100.00
30897;BME280;64229;52.246;21.054;2022-10-31T05:01:51;101020.00;;;7.96;100.00
30897;BME280;64229;52.246;21.054;2022-10-31T05:04:16;101029.25;;;7.93;100.00
30897;BME280;64229;52.246;21.054;2022-10-31T05:06:42;101026.94;;;7.97;100.00
30897;BME280;64229;52.246;21.054;2022-10-31T05:09:07;101034.47;;;8.00;100.00
30897;BME280;64229;52.246;21.054;2022-10-31T05:11:32;101031.00;;;7.99;100.00
30897;BME280;64229;52.246;21.054;2022-10-31T05:13:57;101030.88;;;7.94;100.00
30897;BME280;64229;52.246;21.054;2022-10-31T05:16:23;101036.97;;;7.83;100.00
30897;BME280;64229;52.246;21.054;2022-10-31T05:18:48;101040.19;;;7.73;100.00
30897;BME280;64229;52.246;21.054;2022-10-31T05:21:13;101040.28;;;7.67;100.00
30897;BME280;64229;52.246;21.054;2022-10-31T05:23:38;101036.59;;;7.68;100.00
30897;BME280;64229;52.246;21.054;2022-10-31T05:26:04;101012.28;;;7.52;100.00
30897;BME280;64229;52.246;21.054;2022-10-31T05:28:29;101036.91;;;7.60;100.00
30897;BME280;64229;52.246;21.054;2022-10-31T05:30:54;101030.53;;;7.49;100.00
30897;BME280;64229;52.246;21.054;2022-10-31T05:33:20;101038.63;;;7.54;100.00
30897;BME280;64229;52.246;21.054;2022-10-31T05:35:45;101039.56;;;7.60;100.00
30897;BME280;64229;52.246;21.054;2022-10-31T05:38:10;101039.09;;;7.63;100.00
30897;BME280;64229;52.246;21.054;2022-10-31T05:40:35;101044.41;;;7.63;100.00
30897;BME280;64229;52.246;21.054;2022-10-31T05:43:01;101033.91;;;7.56;100.00
30897;BME280;64229;52.246;21.054;2022-10-31T05:45:26;101033.41;;;7.47;100.00
30897;BME280;64229;52.246;21.054;2022-10-31T05:47:57;101055.59;;;7.53;100.00
30897;BME280;64229;52.246;21.054;2022-10-31T05:50:24;101049.13;;;7.49;100.00
30897;BME280;64229;52.246;21.054;2022-10-31T05:53:01;101057.16;;;7.42;100.00
30897;BME280;64229;52.246;21.054;2022-10-31T05:55:27;101052.34;;;7.21;100.00
30897;BME280;64229;52.246;21.054;2022-10-31T05:57:53;101053.78;;;7.05;100.00
30897;BME280;64229;52.246;21.054;2022-10-31T06:00:20;101058.28;;;7.05;100.00
30897;BME280;64229;52.246;21.054;2022-10-31T06:02:45;101052.00;;;6.99;100.00
30897;BME280;64229;52.246;21.054;2022-10-31T06:05:11;101049.13;;;6.82;100.00
30897;BME280;64229;52.246;21.054;2022-10-31T06:07:37;101054.00;;;6.85;100.00
30897;BME280;64229;52.246;21.054;2022-10-31T06:10:04;101056.44;;;6.87;100.00
30897;BME280;64229;52.246;21.054;2022-10-31T06:12:29;101059.88;;;6.69;100.00
30897;BME280;64229;52.246;21.054;2022-10-31T06:14:55;101049.50;;;6.49;100.00
30897;BME280;64229;52.246;21.054;2022-10-31T06:17:20;101061.50;;;6.52;100.00
30897;BME280;64229;52.246;21.054;2022-10-31T06:19:45;101059.13;;;6.44;100.00
30897;BME280;64229;52.246;21.054;2022-10-31T06:22:11;101065.47;;;6.61;100.00
30897;BME280;64229;52.246;21.054;2022-10-31T06:24:37;101065.13;;;6.76;100.00
30897;BME280;64229;52.246;21.054;2022-10-31T06:27:02;101059.25;;;6.92;100.00
30897;BME280;64229;52.246;21.054;2022-10-31T06:29:27;101059.97;;;6.99;100.00
30897;BME280;64229;52.246;21.054;2022-10-31T06:31:53;101050.16;;;7.00;100.00
30897;BME280;64229;52.246;21.054;2022-10-31T06:34:18;101062.59;;;7.17;100.00
30897;BME280;64229;52.246;21.054;2022-10-31T06:36:45;101063.28;;;7.43;100.00
30897;BME280;64229;52.246;21.054;2022-10-31T06:39:11;101068.41;;;7.44;100.00
30897;BME280;64229;52.246;21.054;2022-10-31T06:41:36;101074.53;;;7.45;100.00
30897;BME280;64229;52.246;21.054;2022-10-31T06:44:01;101078.66;;;7.41;100.00
30897;BME280;64229;52.246;21.054;2022-10-31T06:46:27;101072.25;;;7.30;100.00
30897;BME280;64229;52.246;21.054;2022-10-31T06:48:52;101075.72;;;7.31;100.00
30897;BME280;64229;52.246;21.054;2022-10-31T06:51:17;101070.31;;;7.37;100.00
30897;BME280;64229;52.246;21.054;2022-10-31T06:53:42;101068.78;;;7.30;100.00
30897;BME280;64229;52.246;21.054;2022-10-31T06:56:08;101072.53;;;7.22;100.00
30897;BME280;64229;52.246;21.054;2022-10-31T06:58:33;101080.09;;;7.25;100.00
30897;BME280;64229;52.246;21.054;2022-10-31T07:00:59;101074.38;;;7.21;100.00
30897;BME280;64229;52.246;21.054;2022-10-31T07:03:25;101060.63;;;7.13;100.00
30897;BME280;64229;52.246;21.054;2022-10-31T07:05:50;101078.25;;;7.25;100.00
30897;BME280;64229;52.246;21.054;2022-10-31T07:08:16;101072.97;;;7.37;100.00
30897;BME280;64229;52.246;21.054;2022-10-31T07:10:42;101082.88;;;7.60;100.00
30897;BME280;64229;52.246;21.054;2022-10-31T07:13:13;101081.03;;;7.61;100.00
30897;BME280;64229;52.246;21.054;2022-10-31T07:15:40;101076.31;;;7.63;100.00
30897;BME280;64229;52.246;21.054;2022-10-31T07:18:08;101078.53;;;7.66;100.00
30897;BME280;64229;52.246;21.054;2022-10-31T07:20:34;101083.56;;;7.56;100.00
30897;BME280;64229;52.246;21.054;2022-10-31T07:23:00;101075.91;;;7.47;100.00
30897;BME280;64229;52.246;21.054;2022-10-31T07:25:26;101077.81;;;7.59;100.00
30897;BME280;64229;52.246;21.054;2022-10-31T07:27:52;101078.16;;;7.62;100.00
30897;BME280;64229;52.246;21.054;2022-10-31T07:30:17;101074.34;;;7.58;100.00
30897;BME280;64229;52.246;21.054;2022-10-31T07:32:47;101089.75;;;7.68;100.00
30897;BME280;64229;52.246;21.054;2022-10-31T07:35:15;101092.28;;;7.74;100.00
30897;BME280;64229;52.246;21.054;2022-10-31T07:37:41;101097.50;;;7.81;100.00
30897;BME280;64229;52.246;21.054;2022-10-31T07:40:07;101097.78;;;7.91;100.00
30897;BME280;64229;52.246;21.054;2022-10-31T07:42:36;101097.88;;;7.96;100.00
30897;BME280;64229;52.246;21.054;2022-10-31T07:45:03;101092.56;;;7.96;100.00
30897;BME280;64229;52.246;21.054;2022-10-31T07:47:28;101098.63;;;8.03;100.00
30897;BME280;64229;52.246;21.054;2022-10-31T07:49:54;101098.63;;;8.03;100.00
30897;BME280;64229;52.246;21.054;2022-10-31T07:52:19;101091.84;;;8.19;100.00
30897;BME280;64229;52.246;21.054;2022-10-31T07:54:44;101102.25;;;8.32;100.00
30897;BME280;64229;52.246;21.054;2022-10-31T07:57:09;101092.75;;;8.25;100.00
30897;BME280;64229;52.246;21.054;2022-10-31T07:59:35;101088.38;;;8.30;100.00
30897;BME280;64229;52.246;21.054;2022-10-31T08:02:00;101096.63;;;8.52;100.00
30897;BME280;64229;52.246;21.054;2022-10-31T08:04:25;101102.28;;;8.67;100.00
30897;BME280;64229;52.246;21.054;2022-10-31T08:06:50;101095.22;;;8.85;100.00
30897;BME280;64229;52.246;21.054;2022-10-31T08:09:16;101099.50;;;8.97;100.00
30897;BME280;64229;52.246;21.054;2022-10-31T08:11:41;101102.69;;;9.11;100.00
30897;BME280;64229;52.246;21.054;2022-10-31T08:14:06;101100.56;;;9.25;100.00
30897;BME280;64229;52.246;21.054;2022-10-31T08:16:31;101097.81;;;9.60;100.00
30897;BME280;64229;52.246;21.054;2022-10-31T08:18:57;101099.34;;;9.44;100.00
30897;BME280;64229;52.246;21.054;2022-10-31T08:21:22;101096.78;;;9.21;100.00
30897;BME280;64229;52.246;21.054;2022-10-31T08:23:47;101106.06;;;9.07;100.00
30897;BME280;64229;52.246;21.054;2022-10-31T08:26:13;101102.63;;;9.35;100.00
30897;BME280;64229;52.246;21.054;2022-10-31T08:28:38;101115.16;;;9.34;100.00
30897;BME280;64229;52.246;21.054;2022-10-31T08:31:03;101115.88;;;9.30;100.00
30897;BME280;64229;52.246;21.054;2022-10-31T08:33:29;101111.78;;;9.39;100.00
30897;BME280;64229;52.246;21.054;2022-10-31T08:35:57;101117.28;;;9.61;100.00
30897;BME280;64229;52.246;21.054;2022-10-31T08:38:22;101118.28;;;9.88;100.00
30897;BME280;64229;52.246;21.054;2022-10-31T08:40:48;101120.13;;;10.16;100.00
30897;BME280;64229;52.246;21.054;2022-10-31T08:43:15;101121.13;;;10.43;100.00
30897;BME280;64229;52.246;21.054;2022-10-31T08:45:42;101124.19;;;10.52;100.00
30897;BME280;64229;52.246;21.054;2022-10-31T08:48:13;101124.44;;;10.51;100.00
30897;BME280;64229;52.246;21.054;2022-10-31T08:50:39;101122.41;;;10.75;100.00
30897;BME280;64229;52.246;21.054;2022-10-31T08:53:11;101128.34;;;10.98;100.00
30897;BME280;64229;52.246;21.054;2022-10-31T08:55:38;101135.44;;;11.32;99.08
30897;BME280;64229;52.246;21.054;2022-10-31T08:58:06;101129.09;;;11.59;96.22
30897;BME280;64229;52.246;21.054;2022-10-31T09:00:32;101131.16;;;11.30;94.90
30897;BME280;64229;52.246;21.054;2022-10-31T09:03:06;101119.31;;;11.05;96.98
30897;BME280;64229;52.246;21.054;2022-10-31T09:05:33;101126.53;;;11.04;98.04
30897;BME280;64229;52.246;21.054;2022-10-31T09:08:00;101124.81;;;10.76;99.36
30897;BME280;64229;52.246;21.054;2022-10-31T09:10:28;101120.50;;;10.53;100.00
30897;BME280;64229;52.246;21.054;2022-10-31T09:13:01;101121.06;;;10.55;100.00
30897;BME280;64229;52.246;21.054;2022-10-31T09:15:28;101123.72;;;10.55;100.00
30897;BME280;64229;52.246;21.054;2022-10-31T09:17:54;101129.94;;;10.61;100.00
30897;BME280;64229;52.246;21.054;2022-10-31T09:20:20;101129.13;;;10.60;100.00
30897;BME280;64229;52.246;21.054;2022-10-31T09:22:45;101128.06;;;10.78;100.00
30897;BME280;64229;52.246;21.054;2022-10-31T09:25:10;101128.69;;;10.85;100.00
30897;BME280;64229;52.246;21.054;2022-10-31T09:27:36;101132.06;;;10.97;100.00
30897;BME280;64229;52.246;21.054;2022-10-31T09:30:02;101124.53;;;11.16;98.92
30897;BME280;64229;52.246;21.054;2022-10-31T09:32:27;101131.03;;;11.20;99.11
30897;BME280;64229;52.246;21.054;2022-10-31T09:34:52;101126.19;;;11.39;97.30
30897;BME280;64229;52.246;21.054;2022-10-31T09:37:17;101129.03;;;11.54;97.02
30897;BME280;64229;52.246;21.054;2022-10-31T09:39:43;101129.13;;;11.65;95.23
30897;BME280;64229;52.246;21.054;2022-10-31T09:42:20;101132.56;;;11.60;96.09
30897;BME280;64229;52.246;21.054;2022-10-31T09:50:18;101132.53;;;12.09;95.23
30897;BME280;64229;52.246;21.054;2022-10-31T09:56:01;101129.13;;;12.45;91.99
30897;BME280;64229;52.246;21.054;2022-10-31T09:58:30;101139.94;;;12.61;91.33
30897;BME280;64229;52.246;21.054;2022-10-31T10:00:59;101123.59;;;12.62;92.57
30897;BME280;64229;52.246;21.054;2022-10-31T10:06:15;101134.28;;;13.04;89.52
30897;BME280;64229;52.246;21.054;2022-10-31T10:08:42;101131.41;;;13.11;89.47
30897;BME280;64229;52.246;21.054;2022-10-31T10:19:39;101126.69;;;13.39;87.27
30897;BME280;64229;52.246;21.054;2022-10-31T10:25:14;101119.28;;;13.61;87.44
30897;BME280;64229;52.246;21.054;2022-10-31T10:27:47;101114.19;;;13.80;85.77
30897;BME280;64229;52.246;21.054;2022-10-31T10:30:19;101111.56;;;14.00;83.80
30897;BME280;64229;52.246;21.054;2022-10-31T10:32:56;101116.13;;;14.15;82.49
30897;BME280;64229;52.246;21.054;2022-10-31T10:35:42;101116.41;;;14.29;80.81
30897;BME280;64229;52.246;21.054;2022-10-31T10:38:16;101101.09;;;14.24;80.37
30897;BME280;64229;52.246;21.054;2022-10-31T10:40:42;101104.84;;;14.08;80.42
30897;BME280;64229;52.246;21.054;2022-10-31T10:43:35;101097.31;;;13.79;81.25
30897;BME280;64229;52.246;21.054;2022-10-31T10:49:00;101106.75;;;14.17;80.22
30897;BME280;64229;52.246;21.054;2022-10-31T10:51:45;101089.28;;;14.25;80.40
30897;BME280;64229;52.246;21.054;2022-10-31T10:54:22;101099.72;;;14.42;80.99
30897;BME280;64229;52.246;21.054;2022-10-31T10:57:15;101108.31;;;14.64;79.75
30897;BME280;64229;52.246;21.054;2022-10-31T10:59:44;101104.00;;;14.79;79.14
30897;BME280;64229;52.246;21.054;2022-10-31T11:02:17;101108.28;;;14.85;78.68
30897;BME280;64229;52.246;21.054;2022-10-31T11:04:43;101103.38;;;15.07;76.93
30897;BME280;64229;52.246;21.054;2022-10-31T11:07:10;101096.88;;;15.18;75.90
30897;BME280;64229;52.246;21.054;2022-10-31T11:09:37;101092.84;;;15.21;76.96
30897;BME280;64229;52.246;21.054;2022-10-31T11:12:30;101104.31;;;15.37;75.59
30897;BME280;64229;52.246;21.054;2022-10-31T11:14:57;101101.41;;;15.33;75.61
30897;BME280;64229;52.246;21.054;2022-10-31T11:17:32;101097.63;;;15.29;75.54
30897;BME280;64229;52.246;21.054;2022-10-31T11:20:00;101097.09;;;15.32;74.97
30897;BME280;64229;52.246;21.054;2022-10-31T11:22:26;101094.66;;;15.30;75.37
30897;BME280;64229;52.246;21.054;2022-10-31T11:24:51;101091.16;;;15.35;76.28
30897;BME280;64229;52.246;21.054;2022-10-31T11:27:22;101091.91;;;15.46;76.57
30897;BME280;64229;52.246;21.054;2022-10-31T11:29:49;101099.75;;;15.37;75.39
30897;BME280;64229;52.246;21.054;2022-10-31T11:32:24;101099.47;;;15.44;75.36
30897;BME280;64229;52.246;21.054;2022-10-31T11:34:54;101096.94;;;15.62;74.45
30897;BME280;64229;52.246;21.054;2022-10-31T11:37:42;101095.09;;;15.63;73.83
30897;BME280;64229;52.246;21.054;2022-10-31T11:40:20;101091.47;;;15.78;74.25
30897;BME280;64229;52.246;21.054;2022-10-31T11:42:47;101085.25;;;15.82;72.94
30897;BME280;64229;52.246;21.054;2022-10-31T11:47:54;101087.56;;;15.99;73.31
30897;BME280;64229;52.246;21.054;2022-10-31T11:50:25;101078.25;;;15.81;72.49
30897;BME280;64229;52.246;21.054;2022-10-31T11:52:52;101086.22;;;15.97;73.12
30897;BME280;64229;52.246;21.054;2022-10-31T11:55:38;101092.84;;;16.09;72.32
30897;BME280;64229;52.246;21.054;2022-10-31T11:58:20;101089.06;;;16.10;72.12
30897;BME280;64229;52.246;21.054;2022-10-31T12:00:49;101083.88;;;16.19;72.03
30897;BME280;64229;52.246;21.054;2022-10-31T12:03:38;101079.25;;;16.25;72.71
30897;BME280;64229;52.246;21.054;2022-10-31T12:06:23;101084.22;;;16.41;72.14
30897;BME280;64229;52.246;21.054;2022-10-31T12:08:49;101080.56;;;16.56;70.75
30897;BME280;64229;52.246;21.054;2022-10-31T12:11:38;101075.66;;;16.34;71.30
30897;BME280;64229;52.246;21.054;2022-10-31T12:14:22;101081.19;;;16.19;72.20
30897;BME280;64229;52.246;21.054;2022-10-31T12:16:55;101076.22;;;16.02;72.97
30897;BME280;64229;52.246;21.054;2022-10-31T12:19:36;101081.22;;;16.14;72.92
30897;BME280;64229;52.246;21.054;2022-10-31T12:22:10;101072.59;;;16.17;73.09
30897;BME280;64229;52.246;21.054;2022-10-31T12:25:13;101068.16;;;16.31;72.83
30897;BME280;64229;52.246;21.054;2022-10-31T12:27:58;101075.47;;;16.55;71.96
30897;BME280;64229;52.246;21.054;2022-10-31T12:30:49;101072.78;;;16.55;70.88
30897;BME280;64229;52.246;21.054;2022-10-31T12:38:50;101072.16;;;16.34;68.93
30897;BME280;64229;52.246;21.054;2022-10-31T12:41:44;101057.78;;;16.14;70.10
30897;BME280;64229;52.246;21.054;2022-10-31T12:44:35;101066.69;;;16.44;68.18
30897;BME280;64229;52.246;21.054;2022-10-31T12:50:13;101061.28;;;16.44;67.15
30897;BME280;64229;52.246;21.054;2022-10-31T12:58:23;101064.97;;;16.24;66.16
30897;BME280;64229;52.246;21.054;2022-10-31T13:01:00;101067.53;;;16.39;66.47
30897;BME280;64229;52.246;21.054;2022-10-31T13:03:33;101066.66;;;16.49;66.79
30897;BME280;64229;52.246;21.054;2022-10-31T13:06:09;101063.88;;;16.54;66.26
30897;BME280;64229;52.246;21.054;2022-10-31T13:08:50;101061.56;;;16.42;66.77
30897;BME280;64229;52.246;21.054;2022-10-31T13:11:27;101061.00;;;16.45;66.90
30897;BME280;64229;52.246;21.054;2022-10-31T13:14:41;101060.69;;;16.52;67.39
30897;BME280;64229;52.246;21.054;2022-10-31T13:17:18;101054.94;;;16.59;67.86
30897;BME280;64229;52.246;21.054;2022-10-31T13:19:46;101063.56;;;16.61;67.46
30897;BME280;64229;52.246;21.054;2022-10-31T13:22:16;101059.38;;;16.49;68.26
30897;BME280;64229;52.246;21.054;2022-10-31T13:27:30;101032.03;;;16.32;69.85
30897;BME280;64229;52.246;21.054;2022-10-31T13:30:04;101058.28;;;16.51;70.40
30897;BME280;64229;52.246;21.054;2022-10-31T13:32:45;101065.97;;;16.62;69.91
30897;BME280;64229;52.246;21.054;2022-10-31T13:35:21;101063.19;;;16.72;69.62
30897;BME280;64229;52.246;21.054;2022-10-31T13:41:22;101056.91;;;16.77;68.96
30897;BME280;64229;52.246;21.054;2022-10-31T13:43:58;101063.63;;;16.80;68.36
30897;BME280;64229;52.246;21.054;2022-10-31T13:48:55;101054.38;;;16.62;68.78
30897;BME280;64229;52.246;21.054;2022-10-31T13:51:26;101064.41;;;16.56;69.55
30897;BME280;64229;52.246;21.054;2022-10-31T13:53:59;101055.31;;;16.47;69.72
30897;BME280;64229;52.246;21.054;2022-10-31T13:56:27;101053.59;;;16.32;71.44
30897;BME280;64229;52.246;21.054;2022-10-31T14:01:22;101038.00;;;16.00;74.09
30897;BME280;64229;52.246;21.054;2022-10-31T14:04:14;101041.81;;;15.94;75.53
30897;BME280;64229;52.246;21.054;2022-10-31T14:06:44;101049.97;;;15.84;76.50
30897;BME280;64229;52.246;21.054;2022-10-31T14:09:23;101042.22;;;15.77;77.30